Accueil
METAR-TAF:

METAR-TAF

Aéroports :

Aéroport international de Khartoum

Khartoum, Soudan

latitude: 15-36N, longitude: 032-33E, altitude: 382 m

Observation

Le bulletin a été fait il y a 24 minutes, à 06:30 UTC
Vent 10 kt de nord/nord-est
Température 24°C
Humidité 19%
Pression 1014 hPa
Visibilité 10 km ou plus
pas de nuages en-dessous de 1500 mètres et pas de cumulonimbus.

METAR: HSSS 230630Z 03010KT CAVOK 24/M01 Q1014 NOSIG

Heure: 09:54 (06:54 UTC)

Prévision

Le bulletin a été fait il y a 1 heure et 54 minutes, à 05:00 UTC
Prévision valable du 23 à 06 UTC au 24 à 12 UTC
Vent 8 kt de nord avec des rafales jusqu'à 18 kt
Visibilité 10 km ou plus
pas de nuages en-dessous de 1500 mètres et pas de cumulonimbus.
Temporairement
du 23 à 06 UTC au 23 à 09 UTC
Visibilité: 7000 m

TAF: HSSS 230500Z 2306/2412 36008G18KT CAVOK TEMPO 2306/2309 7000

Observations et prévisions météorologiques de plus de 4000 aéroports (messages METAR et TAF).

Les stations disponibles sont représentées par des disques jaunes et rouges sur la carte.

Passer la souris dessus pour voir le nom de la station.

Cliquer dessus pour voir les observations et prévisions météorologiques.

Pour changer de carte: cliquez sur les boutons verts avec une croix noire pour zoomer, sur le bouton vert avec un tiret pour effectuer un zoom arrière, ou sur les flèches vertes pour les cartes adjacentes.


METAR-TAF: